createdAt,value
2019-05-11T00:00:57.429Z,0.00
2019-05-11T00:01:57.609Z,0.00
2019-05-11T00:02:58.357Z,0.00
2019-05-11T00:03:58.010Z,0.00
2019-05-11T00:04:58.864Z,0.00
2019-05-11T00:05:58.409Z,0.00
2019-05-11T00:06:58.587Z,0.00
2019-05-11T00:07:58.732Z,0.00
2019-05-11T00:08:58.881Z,0.00
2019-05-11T00:09:59.031Z,0.00
2019-05-11T00:10:59.206Z,0.00
2019-05-11T00:11:59.380Z,0.00
2019-05-11T00:12:59.540Z,0.00
2019-05-11T00:13:59.718Z,0.00
2019-05-11T00:14:59.907Z,0.00
2019-05-11T00:16:00.083Z,0.00
2019-05-11T00:17:00.249Z,0.00
2019-05-11T00:18:01.391Z,0.00
2019-05-11T00:19:00.535Z,0.00
2019-05-11T00:20:00.741Z,0.00
2019-05-11T00:21:00.951Z,0.00
2019-05-11T00:22:01.121Z,0.00
2019-05-11T00:23:01.371Z,0.00
2019-05-11T00:24:02.356Z,0.00
2019-05-11T00:25:01.608Z,0.00
2019-05-11T00:26:01.787Z,0.00
2019-05-11T00:27:01.979Z,0.00
2019-05-11T00:28:02.217Z,0.00
2019-05-11T00:29:02.408Z,0.00
2019-05-11T00:30:02.586Z,0.00
2019-05-11T00:31:03.356Z,0.00
2019-05-11T00:32:02.999Z,0.00
2019-05-11T00:33:03.201Z,0.00
2019-05-11T00:34:03.355Z,0.00
2019-05-11T00:35:03.523Z,0.00
2019-05-11T00:36:04.369Z,0.00
2019-05-11T00:37:03.906Z,0.00
2019-05-11T00:38:04.058Z,0.00
2019-05-11T00:39:04.190Z,0.00
2019-05-11T00:40:13.942Z,0.00
2019-05-11T00:41:06.582Z,0.00
2019-05-11T00:42:04.841Z,0.00
2019-05-11T00:43:04.984Z,0.00
2019-05-11T00:44:05.865Z,0.00
2019-05-11T00:45:06.349Z,0.00
2019-05-11T00:46:05.620Z,0.00
2019-05-11T00:47:05.784Z,0.00
2019-05-11T00:48:05.935Z,0.00
2019-05-11T00:49:06.372Z,0.00
2019-05-11T00:50:06.228Z,0.00
2019-05-11T00:51:06.479Z,0.00
2019-05-11T00:52:06.720Z,0.00
2019-05-11T00:53:06.891Z,0.00
2019-05-11T00:54:07.033Z,0.00
2019-05-11T00:55:07.865Z,0.00
2019-05-11T00:56:07.371Z,0.00
2019-05-11T00:57:07.532Z,0.00
2019-05-11T00:58:07.725Z,0.00
2019-05-11T00:59:20.873Z,0.00
2019-05-11T01:00:10.015Z,0.00
2019-05-11T01:01:08.122Z,0.00
2019-05-11T01:02:08.283Z,0.00
2019-05-11T01:03:08.882Z,0.00
2019-05-11T01:04:09.406Z,0.00
2019-05-11T01:05:08.821Z,0.00
2019-05-11T01:06:09.013Z,0.00
2019-05-11T01:07:09.189Z,0.00
2019-05-11T01:08:09.372Z,0.00
2019-05-11T01:09:09.556Z,0.00
2019-05-11T01:10:23.034Z,0.00
2019-05-11T01:11:11.970Z,0.00
2019-05-11T01:12:10.105Z,0.00
2019-05-11T01:13:10.390Z,0.00
2019-05-11T01:14:10.878Z,0.00
2019-05-11T01:15:10.680Z,0.00
2019-05-11T01:16:10.860Z,0.00
2019-05-11T01:17:11.058Z,0.00
2019-05-11T01:18:11.788Z,0.00
2019-05-11T01:19:12.374Z,0.00
2019-05-11T01:20:11.670Z,0.00
2019-05-11T01:21:11.879Z,0.00
2019-05-11T01:22:12.867Z,0.00
2019-05-11T01:23:12.389Z,0.00
2019-05-11T01:24:12.438Z,0.00
2019-05-11T01:25:12.630Z,0.00
2019-05-11T01:26:13.848Z,0.00
2019-05-11T01:27:13.006Z,0.00
2019-05-11T01:28:13.885Z,0.00
2019-05-11T01:29:13.398Z,0.00
2019-05-11T01:30:13.875Z,0.00
2019-05-11T01:31:13.784Z,0.00
2019-05-11T01:32:13.940Z,0.00
2019-05-11T01:33:14.883Z,0.00
2019-05-11T01:34:15.303Z,0.00
2019-05-11T01:35:14.421Z,0.00
2019-05-11T01:36:14.613Z,0.00
2019-05-11T01:37:14.791Z,0.00
2019-05-11T01:38:15.386Z,0.00
2019-05-11T01:39:15.197Z,0.00
2019-05-11T01:40:15.364Z,0.00
2019-05-11T01:41:15.521Z,0.00
2019-05-11T01:42:16.372Z,0.00
2019-05-11T01:43:15.917Z,0.00
2019-05-11T01:44:16.121Z,0.00
2019-05-11T01:45:16.269Z,0.00
2019-05-11T01:46:16.442Z,0.00
2019-05-11T01:47:16.603Z,0.00
2019-05-11T01:48:16.756Z,0.00
2019-05-11T01:49:16.923Z,0.00
2019-05-11T01:50:17.116Z,0.00
2019-05-11T01:51:17.278Z,0.00
2019-05-11T01:52:17.454Z,0.00
2019-05-11T01:53:18.381Z,0.00
2019-05-11T01:54:17.815Z,0.00
2019-05-11T01:55:17.992Z,0.00
2019-05-11T01:56:18.160Z,0.00
2019-05-11T01:57:18.365Z,0.00
2019-05-11T01:58:18.571Z,0.00
2019-05-11T01:59:18.773Z,0.00
2019-05-11T02:00:18.934Z,0.00
2019-05-11T02:01:19.109Z,0.00
2019-05-11T02:02:19.269Z,0.00
2019-05-11T02:03:19.480Z,0.00
2019-05-11T02:04:19.641Z,0.00
2019-05-11T02:05:19.846Z,0.00
2019-05-11T02:06:20.007Z,0.00
2019-05-11T02:07:20.185Z,0.00
2019-05-11T02:08:20.367Z,0.00
2019-05-11T02:09:20.529Z,0.00
2019-05-11T02:10:20.728Z,0.00
2019-05-11T02:11:20.893Z,0.00
2019-05-11T02:12:21.878Z,0.00
2019-05-11T02:13:21.878Z,0.00
2019-05-11T02:14:21.396Z,0.00
2019-05-11T02:15:21.623Z,0.00
2019-05-11T02:16:21.903Z,0.00
2019-05-11T02:17:22.905Z,0.00
2019-05-11T02:18:22.056Z,0.00
2019-05-11T02:19:22.229Z,0.00
2019-05-11T02:20:22.420Z,0.00
2019-05-11T02:21:22.597Z,0.00
2019-05-11T02:22:22.740Z,0.00
2019-05-11T02:23:22.898Z,0.00
2019-05-11T02:24:23.041Z,0.00
2019-05-11T02:25:23.198Z,0.00
2019-05-11T02:26:23.390Z,0.00
2019-05-11T02:27:23.589Z,0.00
2019-05-11T02:28:23.744Z,0.00
2019-05-11T02:29:23.900Z,0.00
2019-05-11T02:30:24.057Z,0.00
2019-05-11T02:31:24.239Z,0.00
2019-05-11T02:32:24.402Z,0.00
2019-05-11T02:33:24.576Z,0.00
2019-05-11T02:34:24.724Z,0.00
2019-05-11T02:35:24.868Z,0.00
2019-05-11T02:36:25.519Z,0.00
2019-05-11T02:37:25.879Z,0.00
2019-05-11T02:38:25.881Z,0.00
2019-05-11T02:39:25.529Z,0.00
2019-05-11T02:40:25.699Z,0.00
2019-05-11T02:41:36.058Z,0.00
2019-05-11T02:42:27.982Z,0.00
2019-05-11T02:43:26.211Z,0.00
2019-05-11T02:44:26.352Z,0.00
2019-05-11T02:45:26.488Z,0.00
2019-05-11T02:46:26.688Z,0.00
2019-05-11T02:47:27.372Z,0.00
2019-05-11T02:48:26.983Z,0.00
2019-05-11T02:49:28.401Z,0.00
2019-05-11T02:50:28.264Z,0.00
2019-05-11T02:51:27.407Z,0.00
2019-05-11T02:52:27.574Z,0.00
2019-05-11T02:53:27.715Z,0.00
2019-05-11T02:54:27.860Z,0.00
2019-05-11T02:55:28.001Z,0.00
2019-05-11T02:56:28.888Z,0.00
2019-05-11T02:57:28.413Z,0.00
2019-05-11T02:58:28.572Z,0.00
2019-05-11T02:59:30.040Z,0.00
2019-05-11T03:00:29.902Z,0.00
2019-05-11T03:01:30.027Z,0.00
2019-05-11T03:02:29.169Z,0.00
2019-05-11T03:03:30.330Z,0.00
2019-05-11T03:04:29.487Z,0.00
2019-05-11T03:05:30.398Z,0.00
2019-05-11T03:06:29.832Z,0.00
2019-05-11T03:07:30.020Z,0.00
2019-05-11T03:08:30.194Z,0.00
2019-05-11T03:09:30.371Z,0.00
2019-05-11T03:10:30.547Z,0.00
2019-05-11T03:11:30.712Z,0.00
2019-05-11T03:12:30.906Z,0.00
2019-05-11T03:13:31.076Z,0.00
2019-05-11T03:14:31.264Z,0.00
2019-05-11T03:15:32.418Z,0.00
2019-05-11T03:16:31.552Z,4.00
2019-05-11T03:17:31.713Z,4.00
2019-05-11T03:18:31.890Z,4.00
2019-05-11T03:19:32.021Z,4.00
2019-05-11T03:20:32.158Z,0.00
2019-05-11T03:21:32.894Z,4.00
2019-05-11T03:22:32.518Z,4.00
2019-05-11T03:23:32.903Z,4.00
2019-05-11T03:24:32.822Z,4.00
2019-05-11T03:25:32.982Z,4.00
2019-05-11T03:26:33.142Z,4.00
2019-05-11T03:27:33.321Z,4.00
2019-05-11T03:28:33.469Z,8.00
2019-05-11T03:29:33.659Z,8.00
2019-05-11T03:30:34.383Z,8.00
2019-05-11T03:31:35.901Z,12.00
2019-05-11T03:32:34.287Z,12.00
2019-05-11T03:33:34.438Z,8.00
2019-05-11T03:34:34.599Z,12.00
2019-05-11T03:35:34.783Z,12.00
2019-05-11T03:36:34.973Z,12.00
2019-05-11T03:37:35.138Z,16.00
2019-05-11T03:38:35.282Z,16.00
2019-05-11T03:39:35.463Z,16.00
2019-05-11T03:40:35.616Z,20.00
2019-05-11T03:41:35.846Z,20.00
2019-05-11T03:42:35.988Z,24.00
2019-05-11T03:43:36.134Z,28.00
2019-05-11T03:44:36.254Z,28.00
2019-05-11T03:45:36.398Z,32.00
2019-05-11T03:46:37.573Z,36.00
2019-05-11T03:47:36.712Z,36.00
2019-05-11T03:48:36.870Z,40.00
2019-05-11T03:49:38.010Z,40.00
2019-05-11T03:50:37.262Z,44.00
2019-05-11T03:51:37.431Z,44.00
2019-05-11T03:52:37.577Z,48.00
2019-05-11T03:53:37.755Z,52.00
2019-05-11T03:54:37.872Z,56.00
2019-05-11T03:55:38.027Z,60.00
2019-05-11T03:56:38.172Z,64.00
2019-05-11T03:57:38.312Z,68.00
2019-05-11T03:58:39.391Z,72.00
2019-05-11T03:59:38.650Z,76.00
2019-05-11T04:00:38.807Z,80.00
2019-05-11T04:01:39.912Z,84.00
2019-05-11T04:02:39.412Z,88.00
2019-05-11T04:03:39.316Z,92.00
2019-05-11T04:04:39.475Z,92.00
2019-05-11T04:05:39.611Z,96.00
2019-05-11T04:06:39.743Z,104.00
2019-05-11T04:07:39.897Z,104.00
2019-05-11T04:08:40.031Z,104.00
2019-05-11T04:09:40.160Z,108.00
2019-05-11T04:10:40.283Z,112.00
2019-05-11T04:11:40.466Z,112.00
2019-05-11T04:12:40.634Z,112.00
2019-05-11T04:13:40.793Z,116.00
2019-05-11T04:14:40.941Z,124.00
2019-05-11T04:15:41.078Z,132.00
2019-05-11T04:16:41.256Z,144.00
2019-05-11T04:17:41.408Z,152.00
2019-05-11T04:18:41.559Z,160.00
2019-05-11T04:19:41.740Z,172.00
2019-05-11T04:20:41.911Z,188.00
2019-05-11T04:21:42.068Z,204.00
2019-05-11T04:22:42.267Z,216.00
2019-05-11T04:23:42.427Z,232.00
2019-05-11T04:24:42.583Z,244.00
2019-05-11T04:25:42.724Z,256.00
2019-05-11T04:26:42.869Z,272.00
2019-05-11T04:27:43.060Z,288.00
2019-05-11T04:28:43.235Z,304.00
2019-05-11T04:29:43.404Z,320.00
2019-05-11T04:30:43.560Z,328.00
2019-05-11T04:31:43.673Z,340.00
2019-05-11T04:32:43.802Z,356.00
2019-05-11T04:33:44.971Z,368.00
2019-05-11T04:34:44.066Z,392.00
2019-05-11T04:35:44.893Z,424.00
2019-05-11T04:36:44.385Z,460.00
2019-05-11T04:37:44.549Z,504.00
2019-05-11T04:38:44.680Z,552.00
2019-05-11T04:39:44.796Z,604.00
2019-05-11T04:40:45.035Z,652.00
2019-05-11T04:41:45.901Z,696.00
2019-05-11T04:42:55.389Z,736.00
2019-05-11T04:43:47.560Z,776.00
2019-05-11T04:44:45.803Z,808.00
2019-05-11T04:45:45.934Z,832.00
2019-05-11T04:46:46.176Z,844.00
2019-05-11T04:47:46.319Z,844.00
2019-05-11T04:48:46.475Z,840.00
2019-05-11T04:49:46.631Z,836.00
2019-05-11T04:50:46.751Z,832.00
2019-05-11T04:51:46.881Z,828.00
2019-05-11T04:52:47.013Z,824.00
2019-05-11T04:53:47.162Z,828.00
2019-05-11T04:54:47.898Z,840.00
2019-05-11T04:55:47.557Z,848.00
2019-05-11T04:56:47.695Z,860.00
2019-05-11T04:57:47.846Z,868.00
2019-05-11T04:58:47.999Z,876.00
2019-05-11T04:59:48.159Z,888.00
2019-05-11T05:00:48.417Z,892.00
2019-05-11T05:01:48.564Z,904.00
2019-05-11T05:02:48.729Z,908.00
2019-05-11T05:03:54.208Z,912.00
2019-05-11T05:04:51.019Z,916.00
2019-05-11T05:05:49.163Z,924.00
2019-05-11T05:06:59.423Z,928.00
2019-05-11T05:07:52.404Z,932.00
2019-05-11T05:08:49.746Z,936.00
2019-05-11T05:09:49.917Z,936.00
2019-05-11T05:10:52.595Z,932.00
2019-05-11T05:11:52.284Z,928.00
2019-05-11T05:12:51.956Z,944.00
2019-05-11T05:13:53.634Z,964.00
2019-05-11T05:14:51.925Z,980.00
2019-05-11T05:15:51.425Z,992.00
2019-05-11T05:16:51.211Z,992.00
2019-05-11T05:17:51.370Z,980.00
2019-05-11T05:18:51.534Z,956.00
2019-05-11T05:19:51.700Z,944.00
2019-05-11T05:20:51.856Z,948.00
2019-05-11T05:21:52.011Z,952.00
2019-05-11T05:22:52.250Z,956.00
2019-05-11T05:23:52.401Z,948.00
2019-05-11T05:24:52.538Z,956.00
2019-05-11T05:25:52.666Z,980.00
2019-05-11T05:26:52.815Z,1032.00
2019-05-11T05:27:52.923Z,1108.00
2019-05-11T05:28:53.165Z,1200.00
2019-05-11T05:29:53.286Z,1284.00
2019-05-11T05:30:53.421Z,1352.00
2019-05-11T05:31:53.907Z,1384.00
2019-05-11T05:32:53.923Z,1392.00
2019-05-11T05:33:53.938Z,1388.00
2019-05-11T05:34:54.085Z,1392.00
2019-05-11T05:35:54.200Z,1396.00
2019-05-11T05:36:54.338Z,1420.00
2019-05-11T05:37:54.498Z,1440.00
2019-05-11T05:38:54.664Z,1452.00
2019-05-11T05:39:54.824Z,1436.00
2019-05-11T05:40:54.947Z,1404.00
2019-05-11T05:41:57.520Z,1380.00
2019-05-11T05:42:56.301Z,1372.00
2019-05-11T05:43:55.419Z,1396.00
2019-05-11T05:44:55.544Z,1444.00
2019-05-11T05:45:55.668Z,1508.00
2019-05-11T05:46:55.803Z,1576.00
2019-05-11T05:47:55.949Z,1652.00
2019-05-11T05:48:56.425Z,1716.00
2019-05-11T05:49:56.298Z,1776.00
2019-05-11T05:50:56.453Z,1820.00
2019-05-11T05:51:58.351Z,1848.00
2019-05-11T05:52:58.409Z,1880.00
2019-05-11T05:53:57.048Z,1904.00
2019-05-11T05:54:57.915Z,1932.00
2019-05-11T05:55:57.899Z,1976.00
2019-05-11T05:56:58.433Z,2036.00
2019-05-11T05:57:57.803Z,2096.00
2019-05-11T05:58:57.973Z,2160.00
2019-05-11T05:59:58.115Z,2220.00
2019-05-11T06:00:58.905Z,2284.00
2019-05-11T06:01:58.398Z,2340.00
2019-05-11T06:02:58.531Z,2380.00
2019-05-11T06:03:58.651Z,2400.00
2019-05-11T06:04:58.916Z,2388.00
2019-05-11T06:05:59.040Z,2356.00
2019-05-11T06:06:59.904Z,2336.00
2019-05-11T06:07:59.376Z,2332.00
2019-05-11T06:08:59.509Z,2356.00
2019-05-11T06:09:59.668Z,2404.00
2019-05-11T06:10:59.829Z,2460.00
2019-05-11T06:11:59.980Z,2516.00
2019-05-11T06:13:00.147Z,2556.00
2019-05-11T06:14:00.321Z,2572.00
2019-05-11T06:15:00.458Z,2572.00
2019-05-11T06:16:00.599Z,2576.00
2019-05-11T06:17:00.749Z,2580.00
2019-05-11T06:18:00.884Z,2588.00
2019-05-11T06:19:01.073Z,2604.00
2019-05-11T06:20:01.320Z,2644.00
2019-05-11T06:21:01.412Z,2684.00
2019-05-11T06:22:01.558Z,2724.00
2019-05-11T06:23:01.757Z,2756.00
2019-05-11T06:24:06.900Z,2776.00
2019-05-11T06:25:04.066Z,2776.00
2019-05-11T06:26:02.347Z,2768.00
2019-05-11T06:27:02.407Z,2744.00
2019-05-11T06:28:03.429Z,2728.00
2019-05-11T06:29:02.826Z,2720.00
2019-05-11T06:30:03.036Z,2728.00
2019-05-11T06:31:03.271Z,2728.00
2019-05-11T06:32:04.415Z,2732.00
2019-05-11T06:33:03.680Z,2716.00
2019-05-11T06:34:03.843Z,2696.00
2019-05-11T06:35:04.019Z,2672.00
2019-05-11T06:36:04.214Z,2644.00
2019-05-11T06:37:04.397Z,2624.00
2019-05-11T06:38:05.410Z,2612.00
2019-05-11T06:39:04.824Z,2608.00
2019-05-11T06:40:04.968Z,2608.00
2019-05-11T06:41:05.911Z,2600.00
2019-05-11T06:42:05.913Z,2592.00
2019-05-11T06:43:05.449Z,2576.00
2019-05-11T06:44:05.636Z,2552.00
2019-05-11T06:45:05.779Z,2540.00
2019-05-11T06:46:05.957Z,2528.00
2019-05-11T06:47:06.169Z,2520.00
2019-05-11T06:48:06.907Z,2516.00
2019-05-11T06:49:06.591Z,2508.00
2019-05-11T06:50:06.782Z,2500.00
2019-05-11T06:51:07.907Z,2496.00
2019-05-11T06:52:07.157Z,2504.00
2019-05-11T06:53:07.334Z,2500.00
2019-05-11T06:54:07.556Z,2476.00
2019-05-11T06:55:07.742Z,2432.00
2019-05-11T06:56:07.921Z,2448.00
2019-05-11T06:57:08.104Z,2512.00
2019-05-11T06:58:08.309Z,2548.00
2019-05-11T06:59:08.531Z,2588.00
2019-05-11T07:00:08.765Z,2628.00
2019-05-11T07:01:08.824Z,2676.00
2019-05-11T07:02:09.038Z,2700.00
2019-05-11T07:03:09.911Z,2804.00
2019-05-11T07:04:09.918Z,2852.00
2019-05-11T07:05:09.555Z,2920.00
2019-05-11T07:06:09.723Z,2988.00
2019-05-11T07:07:09.876Z,3056.00
2019-05-11T07:08:10.056Z,3104.00
2019-05-11T07:09:10.299Z,3152.00
2019-05-11T07:10:10.505Z,3204.00
2019-05-11T07:11:11.426Z,3260.00
2019-05-11T07:12:10.925Z,3308.00
2019-05-11T07:13:11.091Z,3368.00
2019-05-11T07:14:20.584Z,3432.00
2019-05-11T07:15:13.294Z,3488.00
2019-05-11T07:16:11.563Z,3512.00
2019-05-11T07:17:11.735Z,3556.00
2019-05-11T07:18:11.886Z,3604.00
2019-05-11T07:19:12.054Z,3620.00
2019-05-11T07:20:12.206Z,3612.00
2019-05-11T07:21:13.359Z,3640.00
2019-05-11T07:22:12.582Z,3692.00
2019-05-11T07:23:12.728Z,3744.00
2019-05-11T07:24:12.916Z,3824.00
2019-05-11T07:25:13.058Z,3924.00
2019-05-11T07:26:13.235Z,4032.00
2019-05-11T07:27:13.407Z,4144.00
2019-05-11T07:28:13.569Z,4272.00
2019-05-11T07:29:13.746Z,4296.00
2019-05-11T07:30:14.422Z,4492.00
2019-05-11T07:31:14.089Z,4448.00
2019-05-11T07:32:22.382Z,4296.00
2019-05-11T07:33:18.259Z,4364.00
2019-05-11T07:34:14.609Z,4404.00
2019-05-11T07:35:14.778Z,4300.00
2019-05-11T07:36:14.979Z,4012.00
2019-05-11T07:37:15.154Z,3796.00
2019-05-11T07:38:18.209Z,3800.00
2019-05-11T07:39:15.507Z,3800.00
2019-05-11T07:40:15.672Z,3724.00
2019-05-11T07:41:17.630Z,3624.00
2019-05-11T07:42:18.060Z,3756.00
2019-05-11T07:43:18.560Z,4076.00
2019-05-11T07:44:16.362Z,4280.00
2019-05-11T07:45:18.042Z,4432.00
2019-05-11T07:46:18.346Z,4564.00
2019-05-11T07:47:18.677Z,4612.00
2019-05-11T07:48:18.757Z,4680.00
2019-05-11T07:49:18.345Z,4712.00
2019-05-11T07:50:18.141Z,4620.00
2019-05-11T07:51:18.719Z,4512.00
2019-05-11T07:52:18.229Z,4416.00
2019-05-11T07:53:18.962Z,4372.00
2019-05-11T07:54:19.918Z,4388.00
2019-05-11T07:55:19.213Z,4456.00
2019-05-11T07:56:19.389Z,4412.00
2019-05-11T07:57:18.803Z,4316.00
2019-05-11T07:58:20.581Z,4168.00
2019-05-11T07:59:20.933Z,3968.00
2019-05-11T08:00:19.150Z,3760.00
2019-05-11T08:01:19.317Z,3696.00
2019-05-11T08:02:19.478Z,3668.00
2019-05-11T08:03:19.613Z,3668.00
2019-05-11T08:04:19.756Z,3804.00
2019-05-11T08:05:19.907Z,3880.00
2019-05-11T08:06:20.059Z,3832.00
2019-05-11T08:07:20.253Z,3756.00
2019-05-11T08:08:20.934Z,3716.00
2019-05-11T08:09:20.566Z,3596.00
2019-05-11T08:10:20.774Z,3436.00
2019-05-11T08:11:20.927Z,3344.00
2019-05-11T08:12:21.126Z,3304.00
2019-05-11T08:13:21.277Z,3272.00
2019-05-11T08:14:21.444Z,3336.00
2019-05-11T08:15:21.605Z,3288.00
2019-05-11T08:16:21.802Z,3160.00
2019-05-11T08:17:21.954Z,3208.00
2019-05-11T08:18:22.112Z,3152.00
2019-05-11T08:19:22.270Z,2888.00
2019-05-11T08:20:22.434Z,2628.00
2019-05-11T08:21:23.428Z,2464.00
2019-05-11T08:22:23.135Z,2404.00
2019-05-11T08:23:23.969Z,2380.00
2019-05-11T08:24:23.123Z,2312.00
2019-05-11T08:25:23.280Z,2360.00
2019-05-11T08:26:23.447Z,2432.00
2019-05-11T08:27:23.615Z,2504.00
2019-05-11T08:28:23.792Z,2632.00
2019-05-11T08:29:23.932Z,2668.00
2019-05-11T08:30:24.105Z,2516.00
2019-05-11T08:31:24.255Z,2628.00
2019-05-11T08:32:24.429Z,3340.00
2019-05-11T08:33:24.627Z,4248.00
2019-05-11T08:34:24.835Z,4884.00
2019-05-11T08:35:30.383Z,5116.00
2019-05-11T08:36:28.863Z,5304.00
2019-05-11T08:37:25.286Z,5476.00
2019-05-11T08:38:28.494Z,5540.00
2019-05-11T08:39:25.638Z,5600.00
2019-05-11T08:40:25.786Z,5732.00
2019-05-11T08:41:28.012Z,5792.00
2019-05-11T08:42:28.687Z,5728.00
2019-05-11T08:43:28.504Z,5620.00
2019-05-11T08:44:28.792Z,5572.00
2019-05-11T08:45:27.931Z,5524.00
2019-05-11T08:46:28.928Z,5420.00
2019-05-11T08:47:28.354Z,5316.00
2019-05-11T08:48:28.939Z,5332.00
2019-05-11T08:49:28.711Z,5220.00
2019-05-11T08:50:28.758Z,5044.00
2019-05-11T08:51:28.143Z,4864.00
2019-05-11T08:52:29.928Z,4692.00
2019-05-11T08:53:28.549Z,4816.00
2019-05-11T08:54:29.507Z,4852.00
2019-05-11T08:55:29.081Z,4808.00
2019-05-11T08:56:30.433Z,4912.00
2019-05-11T08:57:29.079Z,5484.00
2019-05-11T08:58:29.930Z,6156.00
2019-05-11T08:59:29.491Z,6392.00
2019-05-11T09:00:30.446Z,6332.00
2019-05-11T09:01:31.332Z,6228.00
2019-05-11T09:02:30.055Z,6244.00
2019-05-11T09:03:30.935Z,6308.00
2019-05-11T09:04:30.469Z,6332.00
2019-05-11T09:05:30.648Z,6516.00
2019-05-11T09:06:30.950Z,6332.00
2019-05-11T09:07:31.008Z,6076.00
2019-05-11T09:08:31.223Z,6132.00
2019-05-11T09:09:31.406Z,6760.00
2019-05-11T09:10:31.585Z,6988.00
2019-05-11T09:11:31.784Z,6768.00
2019-05-11T09:12:31.927Z,7104.00
2019-05-11T09:13:32.117Z,7732.00
2019-05-11T09:14:32.280Z,7900.00
2019-05-11T09:15:37.229Z,7988.00
2019-05-11T09:16:34.637Z,8148.00
2019-05-11T09:17:32.746Z,8208.00
2019-05-11T09:18:32.927Z,8360.00
2019-05-11T09:19:33.112Z,8192.00
2019-05-11T09:20:33.311Z,7616.00
2019-05-11T09:21:33.499Z,7088.00
2019-05-11T09:22:33.651Z,7316.00
2019-05-11T09:23:37.648Z,7632.00
2019-05-11T09:24:38.566Z,7596.00
2019-05-11T09:25:34.443Z,7868.00
2019-05-11T09:26:34.213Z,8032.00
2019-05-11T09:27:34.399Z,7480.00
2019-05-11T09:28:34.563Z,6552.00
2019-05-11T09:29:34.755Z,6212.00
2019-05-11T09:30:34.914Z,6540.00
2019-05-11T09:31:35.094Z,6176.00
2019-05-11T09:32:35.264Z,5704.00
2019-05-11T09:33:35.430Z,4996.00
2019-05-11T09:34:37.656Z,4892.00
2019-05-11T09:35:49.184Z,4896.00
2019-05-11T09:36:38.872Z,4452.00
2019-05-11T09:37:38.075Z,3596.00
2019-05-11T09:38:38.323Z,3868.00
2019-05-11T09:39:38.322Z,4132.00
2019-05-11T09:40:38.545Z,4168.00
2019-05-11T09:41:38.335Z,3732.00
2019-05-11T09:42:38.908Z,2808.00
2019-05-11T09:43:38.186Z,2676.00
2019-05-11T09:44:37.981Z,2976.00
2019-05-11T09:45:48.248Z,2820.00
2019-05-11T09:46:39.772Z,2948.00
2019-05-11T09:47:38.579Z,3500.00
2019-05-11T09:48:39.941Z,3664.00
2019-05-11T09:49:46.633Z,3804.00
2019-05-11T09:50:40.701Z,3388.00
2019-05-11T09:51:38.797Z,2696.00
2019-05-11T09:52:38.959Z,2716.00
2019-05-11T09:53:39.152Z,2404.00
2019-05-11T09:54:39.318Z,2368.00
2019-05-11T09:55:39.469Z,2864.00
2019-05-11T09:56:39.644Z,3536.00
2019-05-11T09:57:39.815Z,3908.00
2019-05-11T09:58:40.023Z,5096.00
2019-05-11T09:59:41.174Z,6788.00
2019-05-11T10:00:41.965Z,7516.00
2019-05-11T10:01:40.493Z,7864.00
2019-05-11T10:02:40.663Z,8108.00
2019-05-11T10:03:40.866Z,8252.00
2019-05-11T10:04:41.047Z,8084.00
2019-05-11T10:05:41.256Z,7396.00
2019-05-11T10:06:41.398Z,6384.00
2019-05-11T10:07:41.556Z,5348.00
2019-05-11T10:08:41.956Z,5052.00
2019-05-11T10:09:41.868Z,5328.00
2019-05-11T10:10:42.035Z,5656.00
2019-05-11T10:11:42.170Z,5856.00
2019-05-11T10:12:42.309Z,5952.00
2019-05-11T10:13:42.470Z,5460.00
2019-05-11T10:14:42.641Z,4764.00
2019-05-11T10:15:42.784Z,5236.00
2019-05-11T10:16:42.930Z,5260.00
2019-05-11T10:17:43.941Z,5200.00
2019-05-11T10:18:43.472Z,4952.00
2019-05-11T10:19:46.495Z,4896.00
2019-05-11T10:20:43.634Z,5764.00
2019-05-11T10:21:43.772Z,6536.00
2019-05-11T10:22:43.921Z,6640.00
2019-05-11T10:23:44.063Z,6444.00
2019-05-11T10:24:44.223Z,6056.00
2019-05-11T10:25:44.351Z,5648.00
2019-05-11T10:26:44.496Z,5288.00
2019-05-11T10:27:44.954Z,4660.00
2019-05-11T10:28:47.941Z,3916.00
2019-05-11T10:29:45.458Z,3172.00
2019-05-11T10:30:45.237Z,2476.00
2019-05-11T10:31:45.391Z,2464.00
2019-05-11T10:32:45.532Z,3224.00
2019-05-11T10:33:48.661Z,3964.00
2019-05-11T10:34:47.778Z,5176.00
2019-05-11T10:35:48.307Z,5288.00
2019-05-11T10:36:48.605Z,5080.00
2019-05-11T10:37:47.891Z,5472.00
2019-05-11T10:38:48.626Z,5800.00
2019-05-11T10:39:48.835Z,5752.00
2019-05-11T10:40:48.487Z,5192.00
2019-05-11T10:41:47.988Z,4052.00
2019-05-11T10:42:48.545Z,3436.00
2019-05-11T10:43:49.206Z,4116.00
2019-05-11T10:44:48.670Z,4252.00
2019-05-11T10:45:48.480Z,4164.00
2019-05-11T10:46:48.920Z,4444.00
2019-05-11T10:47:48.910Z,5176.00
2019-05-11T10:48:49.205Z,4836.00
2019-05-11T10:49:48.945Z,4228.00
2019-05-11T10:50:48.541Z,4388.00
2019-05-11T10:51:48.762Z,4252.00
2019-05-11T10:52:49.730Z,4564.00
2019-05-11T10:53:51.939Z,4764.00
2019-05-11T10:54:50.942Z,6392.00
2019-05-11T10:55:49.303Z,7032.00
2019-05-11T10:56:49.465Z,7224.00
2019-05-11T10:57:49.632Z,6864.00
2019-05-11T10:58:49.778Z,5620.00
2019-05-11T10:59:49.965Z,6636.00
2019-05-11T11:00:50.175Z,7804.00
2019-05-11T11:01:50.338Z,7368.00
2019-05-11T11:02:51.445Z,6188.00
2019-05-11T11:03:50.722Z,4388.00
2019-05-11T11:04:50.891Z,5328.00
2019-05-11T11:05:51.077Z,5440.00
2019-05-11T11:06:51.225Z,5384.00
2019-05-11T11:07:51.357Z,5836.00
2019-05-11T11:08:51.521Z,6080.00
2019-05-11T11:09:52.458Z,7776.00
2019-05-11T11:10:51.876Z,8692.00
2019-05-11T11:11:52.071Z,9588.00
2019-05-11T11:12:52.232Z,10600.00
2019-05-11T11:13:52.408Z,9076.00
2019-05-11T11:14:52.559Z,8704.00
2019-05-11T11:15:52.733Z,5356.00
2019-05-11T11:16:53.448Z,3576.00
2019-05-11T11:17:53.112Z,3548.00
2019-05-11T11:18:53.259Z,3784.00
2019-05-11T11:19:53.413Z,4420.00
2019-05-11T11:20:53.588Z,5316.00
2019-05-11T11:21:53.740Z,6468.00
2019-05-11T11:22:53.926Z,5396.00
2019-05-11T11:23:54.055Z,4216.00
2019-05-11T11:24:54.225Z,4416.00
2019-05-11T11:25:54.360Z,4436.00
2019-05-11T11:26:54.578Z,4540.00
2019-05-11T11:27:54.720Z,4636.00
2019-05-11T11:28:54.852Z,4600.00
2019-05-11T11:29:54.981Z,4380.00
2019-05-11T11:30:55.218Z,3880.00
2019-05-11T11:31:55.367Z,3972.00
2019-05-11T11:32:55.496Z,4256.00
2019-05-11T11:33:58.394Z,4152.00
2019-05-11T11:34:57.809Z,4256.00
2019-05-11T11:35:58.012Z,4584.00
2019-05-11T11:36:58.033Z,4272.00
2019-05-11T11:37:58.486Z,3864.00
2019-05-11T11:38:58.506Z,3616.00
2019-05-11T11:39:58.133Z,4368.00
2019-05-11T11:40:58.688Z,5252.00
2019-05-11T11:41:58.695Z,6960.00
2019-05-11T11:42:58.962Z,8016.00
2019-05-11T11:43:58.648Z,7344.00
2019-05-11T11:44:58.911Z,4980.00
2019-05-11T11:45:58.753Z,3832.00
2019-05-11T11:46:59.290Z,3308.00
2019-05-11T11:47:59.164Z,3376.00
2019-05-11T11:48:58.385Z,3336.00
2019-05-11T11:49:58.589Z,3788.00
2019-05-11T11:50:58.733Z,4628.00
2019-05-11T11:51:58.881Z,5900.00
2019-05-11T11:52:59.468Z,6856.00
2019-05-11T11:53:59.190Z,5948.00
2019-05-11T11:54:59.321Z,4660.00
2019-05-11T11:55:59.446Z,4360.00
2019-05-11T11:56:59.568Z,4652.00
2019-05-11T11:57:59.756Z,5276.00
2019-05-11T11:58:59.913Z,5180.00
2019-05-11T12:00:00.065Z,4692.00
2019-05-11T12:01:00.231Z,4424.00
2019-05-11T12:02:00.394Z,4328.00
2019-05-11T12:03:00.546Z,5096.00
2019-05-11T12:04:00.686Z,5448.00
2019-05-11T12:05:00.819Z,4956.00
2019-05-11T12:06:00.974Z,4564.00
2019-05-11T12:07:01.159Z,4696.00
2019-05-11T12:08:01.311Z,5288.00
2019-05-11T12:09:01.957Z,5280.00
2019-05-11T12:10:01.970Z,4676.00
2019-05-11T12:11:01.752Z,4432.00
2019-05-11T12:12:02.473Z,4388.00
2019-05-11T12:13:02.989Z,3896.00
2019-05-11T12:14:02.374Z,3584.00
2019-05-11T12:15:02.526Z,4040.00
2019-05-11T12:16:02.666Z,4520.00
2019-05-11T12:17:07.761Z,4524.00
2019-05-11T12:18:05.457Z,3872.00
2019-05-11T12:19:05.382Z,3772.00
2019-05-11T12:20:04.302Z,3408.00
2019-05-11T12:21:03.475Z,3776.00
2019-05-11T12:22:04.460Z,3656.00
2019-05-11T12:23:03.846Z,3264.00
2019-05-11T12:24:03.987Z,3328.00
2019-05-11T12:25:04.127Z,3468.00
2019-05-11T12:26:04.490Z,4008.00
2019-05-11T12:27:04.510Z,4860.00
2019-05-11T12:28:04.659Z,4776.00
2019-05-11T12:29:08.002Z,4080.00
2019-05-11T12:30:05.043Z,3860.00
2019-05-11T12:31:05.204Z,3692.00
2019-05-11T12:32:05.344Z,3900.00